createdAt,value
2018-09-20T00:00:07.839Z,93.60
2018-09-20T00:02:35.281Z,93.70
2018-09-20T00:05:02.662Z,93.70
2018-09-20T00:07:30.127Z,93.80
2018-09-20T00:09:57.520Z,93.70
2018-09-20T00:12:25.247Z,93.80
2018-09-20T00:14:52.675Z,93.80
2018-09-20T00:17:20.107Z,93.80
2018-09-20T00:19:47.503Z,94.00
2018-09-20T00:22:14.931Z,94.00
2018-09-20T00:24:42.326Z,94.10
2018-09-20T00:27:09.780Z,94.20
2018-09-20T00:29:37.160Z,94.20
2018-09-20T00:32:04.614Z,94.40
2018-09-20T00:34:31.992Z,94.50
2018-09-20T00:36:59.378Z,94.60
2018-09-20T00:39:26.850Z,94.60
2018-09-20T00:41:54.328Z,94.60
2018-09-20T00:44:21.783Z,94.80
2018-09-20T00:46:49.292Z,94.90
2018-09-20T00:49:16.727Z,95.00
2018-09-20T00:51:44.179Z,95.10
2018-09-20T00:54:11.551Z,95.00
2018-09-20T00:56:38.927Z,95.00
2018-09-20T00:59:06.397Z,95.10
2018-09-20T01:01:33.739Z,95.10
2018-09-20T01:04:01.464Z,95.10
2018-09-20T01:06:28.895Z,95.10
2018-09-20T01:08:56.267Z,95.50
2018-09-20T01:11:23.643Z,95.20
2018-09-20T01:13:51.106Z,95.20
2018-09-20T01:16:18.464Z,95.30
2018-09-20T01:18:45.834Z,95.00
2018-09-20T01:21:13.226Z,94.90
2018-09-20T01:23:40.731Z,94.90
2018-09-20T01:26:08.216Z,95.00
2018-09-20T01:28:35.646Z,95.10
2018-09-20T01:31:02.998Z,95.40
2018-09-20T01:33:30.627Z,95.60
2018-09-20T01:35:58.022Z,95.70
2018-09-20T01:38:25.459Z,95.80
2018-09-20T01:40:52.909Z,96.10
2018-09-20T01:43:20.339Z,96.00
2018-09-20T01:45:47.914Z,96.20
2018-09-20T01:48:15.273Z,96.40
2018-09-20T01:50:42.784Z,96.60
2018-09-20T01:53:10.202Z,96.70
2018-09-20T01:55:37.617Z,96.80
2018-09-20T01:58:05.062Z,96.80
2018-09-20T02:00:32.438Z,96.90
2018-09-20T02:02:59.881Z,97.10
2018-09-20T02:05:27.263Z,97.40
2018-09-20T02:07:54.745Z,97.70
2018-09-20T02:10:22.558Z,97.80
2018-09-20T02:12:49.969Z,97.90
2018-09-20T02:15:17.375Z,98.20
2018-09-20T02:17:44.806Z,98.60
2018-09-20T02:20:12.205Z,98.80
2018-09-20T02:22:39.727Z,98.90
2018-09-20T02:25:07.095Z,99.20
2018-09-20T02:27:34.486Z,99.50
2018-09-20T02:30:01.860Z,99.90
2018-09-20T02:32:29.380Z,99.90
2018-09-20T02:34:56.792Z,99.90
2018-09-20T02:37:24.182Z,99.90
2018-09-20T02:39:51.719Z,99.90
2018-09-20T02:42:19.114Z,99.90
2018-09-20T02:44:47.119Z,99.90
2018-09-20T02:47:14.627Z,99.90
2018-09-20T02:49:42.159Z,99.90
2018-09-20T02:52:09.627Z,99.90
2018-09-20T02:54:37.070Z,99.90
2018-09-20T02:57:04.442Z,99.90
2018-09-20T02:59:31.799Z,99.90
2018-09-20T03:01:59.222Z,99.90
2018-09-20T03:04:26.571Z,99.90
2018-09-20T03:06:53.939Z,99.90
2018-09-20T03:09:21.271Z,99.90
2018-09-20T03:11:48.658Z,99.90
2018-09-20T03:14:16.011Z,99.90
2018-09-20T03:16:43.540Z,99.90
2018-09-20T03:19:10.979Z,99.90
2018-09-20T03:21:38.482Z,99.90
2018-09-20T03:24:05.938Z,99.90
2018-09-20T03:26:33.371Z,99.90
2018-09-20T03:29:00.995Z,99.90
2018-09-20T03:31:28.350Z,99.90
2018-09-20T03:33:55.819Z,99.90
2018-09-20T03:36:23.166Z,99.90
2018-09-20T03:38:50.630Z,99.90
2018-09-20T03:41:17.986Z,99.90
2018-09-20T03:43:45.359Z,99.90
2018-09-20T03:46:12.719Z,99.90
2018-09-20T03:48:40.127Z,99.90
2018-09-20T03:51:07.474Z,99.90
2018-09-20T03:53:35.070Z,99.90
2018-09-20T03:56:02.534Z,99.90
2018-09-20T03:58:29.866Z,99.90
2018-09-20T04:00:57.230Z,99.90
2018-09-20T04:03:24.619Z,99.90
2018-09-20T04:05:51.964Z,99.90
2018-09-20T04:08:19.371Z,99.90
2018-09-20T04:10:46.739Z,99.90
2018-09-20T04:13:14.193Z,99.90
2018-09-20T04:15:41.782Z,99.90
2018-09-20T04:18:09.295Z,99.90
2018-09-20T04:20:36.630Z,99.90
2018-09-20T04:23:04.498Z,99.90
2018-09-20T04:25:31.831Z,99.90
2018-09-20T04:27:59.194Z,99.90
2018-09-20T04:30:26.522Z,99.90
2018-09-20T04:32:53.959Z,99.90
2018-09-20T04:35:21.443Z,99.90
2018-09-20T04:37:48.817Z,99.90
2018-09-20T04:40:16.367Z,99.90
2018-09-20T04:42:43.729Z,99.90
2018-09-20T04:45:11.430Z,99.90
2018-09-20T04:47:38.875Z,99.90
2018-09-20T04:50:06.244Z,99.90
2018-09-20T04:52:33.610Z,99.90
2018-09-20T04:55:00.960Z,99.90
2018-09-20T04:57:28.343Z,99.90
2018-09-20T04:59:55.760Z,99.90
2018-09-20T05:02:23.201Z,99.90
2018-09-20T05:04:50.575Z,99.90
2018-09-20T05:07:17.923Z,99.90
2018-09-20T05:09:45.275Z,99.90
2018-09-20T05:12:12.666Z,99.90
2018-09-20T05:14:40.106Z,99.90
2018-09-20T05:17:07.463Z,99.90
2018-09-20T05:19:35.311Z,99.90
2018-09-20T05:22:02.679Z,99.90
2018-09-20T05:24:30.142Z,99.90
2018-09-20T05:26:57.648Z,99.90
2018-09-20T05:29:25.261Z,99.90
2018-09-20T05:31:52.599Z,99.90
2018-09-20T05:34:20.043Z,99.90
2018-09-20T05:36:47.500Z,99.90
2018-09-20T05:39:14.904Z,99.90
2018-09-20T05:41:42.305Z,99.90
2018-09-20T05:44:10.387Z,99.90
2018-09-20T05:46:37.763Z,99.90
2018-09-20T05:49:05.397Z,99.90
2018-09-20T05:51:32.831Z,99.90
2018-09-20T05:54:00.440Z,99.90
2018-09-20T05:56:27.803Z,99.90
2018-09-20T05:58:55.162Z,99.90
2018-09-20T06:01:22.571Z,99.90
2018-09-20T06:03:51.378Z,99.90
2018-09-20T06:06:18.752Z,99.90
2018-09-20T06:08:46.146Z,99.90
2018-09-20T06:11:13.482Z,99.90
2018-09-20T06:13:40.877Z,99.90
2018-09-20T06:16:08.317Z,99.90
2018-09-20T06:18:36.450Z,99.90
2018-09-20T06:21:03.920Z,99.90
2018-09-20T06:23:31.294Z,99.90
2018-09-20T06:25:58.715Z,99.90
2018-09-20T06:28:26.090Z,99.90
2018-09-20T06:30:54.498Z,99.90
2018-09-20T06:33:21.998Z,99.90
2018-09-20T06:35:49.527Z,99.90
2018-09-20T06:38:16.931Z,99.90
2018-09-20T06:40:44.366Z,99.90
2018-09-20T06:43:11.762Z,99.90
2018-09-20T06:45:39.193Z,99.90
2018-09-20T06:48:06.551Z,99.90
2018-09-20T06:50:34.015Z,99.90
2018-09-20T06:53:01.335Z,99.90
2018-09-20T06:55:28.795Z,99.90
2018-09-20T06:57:56.351Z,99.90
2018-09-20T07:00:23.728Z,99.90
2018-09-20T07:02:51.139Z,99.90
2018-09-20T07:05:18.458Z,99.90
2018-09-20T07:07:45.854Z,99.90
2018-09-20T07:10:13.447Z,99.90
2018-09-20T07:12:40.907Z,99.90
2018-09-20T07:15:08.407Z,99.90
2018-09-20T07:17:35.881Z,99.90
2018-09-20T07:20:03.278Z,99.90
2018-09-20T07:22:30.696Z,99.90
2018-09-20T07:24:58.127Z,99.90
2018-09-20T07:27:25.466Z,99.90
2018-09-20T07:29:52.874Z,99.90
2018-09-20T07:32:20.214Z,99.90
2018-09-20T07:34:47.659Z,99.90
2018-09-20T07:37:15.101Z,99.90
2018-09-20T07:39:42.553Z,99.90
2018-09-20T07:42:10.001Z,99.90
2018-09-20T07:44:37.354Z,99.90
2018-09-20T07:47:04.721Z,99.80
2018-09-20T07:49:32.424Z,99.80
2018-09-20T07:51:59.744Z,99.90
2018-09-20T07:54:27.102Z,99.50
2018-09-20T07:56:54.476Z,99.60
2018-09-20T07:59:21.946Z,99.40
2018-09-20T08:01:49.333Z,98.90
2018-09-20T08:04:16.634Z,98.70
2018-09-20T08:06:44.090Z,98.50
2018-09-20T08:09:12.546Z,98.80
2018-09-20T08:11:39.951Z,98.60
2018-09-20T08:14:07.351Z,97.70
2018-09-20T08:16:34.727Z,97.10
2018-09-20T08:19:03.195Z,97.10
2018-09-20T08:21:30.586Z,97.20
2018-09-20T08:23:57.942Z,97.00
2018-09-20T08:26:25.442Z,96.80
2018-09-20T08:28:53.016Z,96.50
2018-09-20T08:31:20.437Z,96.40
2018-09-20T08:33:48.162Z,96.20
2018-09-20T08:36:15.615Z,96.10
2018-09-20T08:38:43.070Z,96.10
2018-09-20T08:41:10.472Z,96.10
2018-09-20T08:43:37.918Z,95.60
2018-09-20T08:46:05.287Z,95.00
2018-09-20T08:48:32.985Z,94.70
2018-09-20T08:51:00.356Z,94.50
2018-09-20T08:53:27.694Z,94.00
2018-09-20T08:55:55.054Z,93.40
2018-09-20T08:58:22.401Z,93.50
2018-09-20T09:00:49.902Z,92.60
2018-09-20T09:03:17.243Z,92.70
2018-09-20T09:05:44.607Z,92.30
2018-09-20T09:08:12.019Z,91.90
2018-09-20T09:10:39.448Z,91.10
2018-09-20T09:13:06.843Z,90.80
2018-09-20T09:15:34.295Z,90.90
2018-09-20T09:18:01.638Z,90.70
2018-09-20T09:20:29.017Z,90.30
2018-09-20T09:22:56.378Z,90.20
2018-09-20T09:25:23.837Z,89.40
2018-09-20T09:27:51.175Z,88.90
2018-09-20T09:30:18.535Z,88.10
2018-09-20T09:32:45.929Z,87.70
2018-09-20T09:35:13.454Z,87.70
2018-09-20T09:37:41.371Z,87.20
2018-09-20T09:40:08.823Z,88.30
2018-09-20T09:42:36.330Z,87.90
2018-09-20T09:45:03.740Z,87.90
2018-09-20T09:47:31.093Z,88.10
2018-09-20T09:49:58.479Z,87.90
2018-09-20T09:52:25.890Z,87.70
2018-09-20T09:54:53.261Z,87.40
2018-09-20T09:57:20.696Z,87.30
2018-09-20T09:59:48.098Z,87.20
2018-09-20T10:02:15.519Z,86.70
2018-09-20T10:04:42.862Z,86.60
2018-09-20T10:07:10.301Z,86.50
2018-09-20T10:09:37.934Z,87.20
2018-09-20T10:12:05.403Z,86.80
2018-09-20T10:14:32.902Z,86.80
2018-09-20T10:17:00.335Z,87.00
2018-09-20T10:19:27.675Z,86.80
2018-09-20T10:21:55.023Z,86.70
2018-09-20T10:24:22.399Z,87.20
2018-09-20T10:26:49.839Z,86.40
2018-09-20T10:29:17.199Z,86.20
2018-09-20T10:31:44.562Z,86.10
2018-09-20T10:34:12.070Z,86.40
2018-09-20T10:36:39.395Z,86.30
2018-09-20T10:39:07.954Z,86.50
2018-09-20T10:41:35.314Z,85.10
2018-09-20T10:44:02.665Z,85.10
2018-09-20T10:46:30.031Z,85.20
2018-09-20T10:48:57.410Z,85.00
2018-09-20T10:51:24.770Z,84.60
2018-09-20T10:53:52.182Z,84.40
2018-09-20T10:56:19.546Z,83.90
2018-09-20T10:58:46.910Z,83.50
2018-09-20T11:01:14.283Z,83.00
2018-09-20T11:03:41.647Z,83.10
2018-09-20T11:06:09.114Z,83.20
2018-09-20T11:08:36.482Z,82.80
2018-09-20T11:11:03.945Z,82.60
2018-09-20T11:13:31.367Z,82.00
2018-09-20T11:15:58.722Z,81.90
2018-09-20T11:18:26.094Z,82.20
2018-09-20T11:20:53.590Z,81.60
2018-09-20T11:23:20.958Z,81.50
2018-09-20T11:26:19.519Z,81.80
2018-09-20T11:28:47.080Z,81.90
2018-09-20T11:31:14.613Z,82.40
2018-09-20T11:33:41.993Z,81.80
2018-09-20T11:36:09.742Z,81.50
2018-09-20T11:38:37.204Z,81.40
2018-09-20T11:41:04.584Z,81.70
2018-09-20T11:43:32.111Z,81.50
2018-09-20T11:45:59.505Z,82.00
2018-09-20T11:48:26.916Z,81.20
2018-09-20T11:50:54.290Z,81.10
2018-09-20T11:53:21.739Z,81.00
2018-09-20T11:55:49.227Z,80.70
2018-09-20T11:58:16.721Z,80.70
2018-09-20T12:00:44.598Z,80.40
2018-09-20T12:03:11.986Z,80.20
2018-09-20T12:05:39.363Z,80.10
2018-09-20T12:08:06.840Z,79.10
2018-09-20T12:10:34.387Z,78.80
2018-09-20T12:13:01.864Z,78.70
2018-09-20T12:15:29.263Z,78.70
2018-09-20T12:17:56.754Z,78.00
2018-09-20T12:20:24.159Z,77.60
2018-09-20T12:22:51.752Z,77.30
2018-09-20T12:25:19.133Z,77.40
2018-09-20T12:27:46.578Z,77.20
2018-09-20T12:30:13.923Z,77.20
2018-09-20T12:32:41.321Z,76.60
2018-09-20T12:35:09.298Z,76.40
2018-09-20T12:37:37.838Z,76.20
2018-09-20T12:40:06.132Z,75.90
2018-09-20T12:42:33.498Z,75.60
2018-09-20T12:45:01.463Z,75.20
2018-09-20T12:47:28.826Z,75.10
2018-09-20T12:49:56.759Z,75.00
2018-09-20T12:52:24.157Z,75.10
2018-09-20T12:54:51.617Z,74.70
2018-09-20T12:57:19.181Z,74.60
2018-09-20T12:59:46.596Z,74.20
2018-09-20T13:02:14.082Z,74.30
2018-09-20T13:04:41.495Z,73.60
2018-09-20T13:07:08.876Z,72.90
2018-09-20T13:09:36.239Z,72.50
2018-09-20T13:12:03.658Z,72.30
2018-09-20T13:14:31.039Z,72.00
2018-09-20T13:16:58.381Z,72.20
2018-09-20T13:19:25.946Z,71.40
2018-09-20T13:21:53.288Z,70.60
2018-09-20T13:24:20.670Z,70.80
2018-09-20T13:26:48.030Z,70.40
2018-09-20T13:29:15.402Z,70.40
2018-09-20T13:31:42.889Z,70.10
2018-09-20T13:34:10.190Z,69.50
2018-09-20T13:36:37.623Z,69.30
2018-09-20T13:39:07.635Z,69.20
2018-09-20T13:41:35.090Z,68.60
2018-09-20T13:44:03.066Z,69.00
2018-09-20T13:46:30.687Z,68.20
2018-09-20T13:48:58.066Z,67.80
2018-09-20T13:51:25.398Z,66.50
2018-09-20T13:53:53.121Z,65.70
2018-09-20T13:56:20.575Z,65.20
2018-09-20T13:58:48.186Z,64.90
2018-09-20T14:01:15.699Z,65.00
2018-09-20T14:03:43.140Z,65.10
2018-09-20T14:06:10.477Z,65.50
2018-09-20T14:08:38.074Z,65.90
2018-09-20T14:11:05.646Z,65.90
2018-09-20T14:13:33.331Z,66.20
2018-09-20T14:16:00.892Z,66.50
2018-09-20T14:18:28.586Z,66.50
2018-09-20T14:20:55.975Z,66.90
2018-09-20T14:23:23.326Z,66.80
2018-09-20T14:25:50.866Z,67.00
2018-09-20T14:28:18.379Z,66.80
2018-09-20T14:30:45.803Z,67.00
2018-09-20T14:33:14.306Z,66.90
2018-09-20T14:35:41.917Z,66.00
2018-09-20T14:38:09.524Z,65.70
2018-09-20T14:40:37.055Z,65.30
2018-09-20T14:43:04.492Z,65.00
2018-09-20T14:45:32.245Z,64.90
2018-09-20T14:47:59.883Z,64.00
2018-09-20T14:50:27.260Z,63.90
2018-09-20T14:52:55.058Z,63.80
2018-09-20T14:55:22.418Z,63.40
2018-09-20T14:57:49.825Z,63.40
2018-09-20T15:00:17.283Z,62.30
2018-09-20T15:02:44.850Z,62.30
2018-09-20T15:05:12.224Z,62.50
2018-09-20T15:07:39.638Z,62.20
2018-09-20T15:10:07.107Z,62.00
2018-09-20T15:12:34.501Z,62.00
2018-09-20T15:15:01.919Z,61.70
2018-09-20T15:17:29.622Z,60.50
2018-09-20T15:19:57.095Z,59.50
2018-09-20T15:22:24.546Z,57.40
2018-09-20T15:24:52.573Z,57.40
2018-09-20T15:27:20.023Z,56.80
2018-09-20T15:29:47.675Z,57.70
2018-09-20T15:32:15.339Z,58.90
2018-09-20T15:34:42.849Z,59.30
2018-09-20T15:37:10.203Z,59.80
2018-09-20T15:39:37.574Z,60.50
2018-09-20T15:42:04.964Z,60.20
2018-09-20T15:44:32.422Z,60.60
2018-09-20T15:47:00.226Z,60.60
2018-09-20T15:49:27.979Z,59.90
2018-09-20T15:51:55.480Z,59.10
2018-09-20T15:54:22.967Z,58.50
2018-09-20T15:56:50.520Z,58.00
2018-09-20T15:59:19.033Z,57.80
2018-09-20T16:01:46.593Z,57.10
2018-09-20T16:04:14.256Z,56.60
2018-09-20T16:06:41.780Z,56.20
2018-09-20T16:09:11.066Z,55.40
2018-09-20T16:11:39.316Z,54.40
2018-09-20T16:14:08.321Z,54.10
2018-09-20T16:16:36.094Z,54.60
2018-09-20T16:19:03.947Z,54.40
2018-09-20T16:21:31.342Z,54.70
2018-09-20T16:23:58.998Z,55.30
2018-09-20T16:26:26.588Z,56.70
2018-09-20T16:29:00.804Z,56.80
2018-09-20T16:32:33.758Z,57.50
2018-09-20T16:35:03.782Z,57.80
2018-09-20T16:37:35.006Z,58.60
2018-09-20T16:40:02.739Z,59.00
2018-09-20T16:42:30.654Z,59.40
2018-09-20T16:44:59.046Z,59.80
2018-09-20T16:47:26.402Z,60.20
2018-09-20T16:49:53.774Z,60.90
2018-09-20T16:52:21.139Z,61.30
2018-09-20T16:54:48.486Z,61.80
2018-09-20T16:57:15.902Z,61.90
2018-09-20T16:59:43.394Z,62.10
2018-09-20T17:02:10.742Z,62.60
2018-09-20T17:04:38.137Z,62.90
2018-09-20T17:07:05.660Z,63.40
2018-09-20T17:09:33.054Z,64.10
2018-09-20T17:12:00.429Z,64.20
2018-09-20T17:14:27.903Z,64.60
2018-09-20T17:16:55.235Z,65.70
2018-09-20T17:19:22.630Z,65.20
2018-09-20T17:21:49.977Z,65.80
2018-09-20T17:24:17.420Z,65.90
2018-09-20T17:26:44.786Z,66.30
2018-09-20T17:29:12.307Z,66.40
2018-09-20T17:31:39.741Z,66.20
2018-09-20T17:34:07.124Z,66.20
2018-09-20T17:36:34.706Z,66.40
2018-09-20T17:39:02.206Z,66.90
2018-09-20T17:41:33.307Z,67.10
2018-09-20T17:44:02.782Z,67.30
2018-09-20T17:46:30.198Z,67.70
2018-09-20T17:48:57.586Z,68.10
2018-09-20T17:51:25.339Z,68.40
2018-09-20T17:53:53.224Z,68.60
2018-09-20T17:56:20.871Z,69.00
2018-09-20T17:58:48.838Z,69.30
2018-09-20T18:01:16.260Z,69.50
2018-09-20T18:03:43.946Z,69.80
2018-09-20T18:08:50.014Z,70.00
2018-09-20T18:11:17.507Z,70.20
2018-09-20T18:13:45.034Z,70.60
2018-09-20T18:16:12.874Z,70.70
2018-09-20T18:18:40.282Z,70.80
2018-09-20T18:21:07.716Z,70.80
2018-09-20T18:23:35.077Z,71.00
2018-09-20T18:26:02.580Z,72.30
2018-09-20T18:28:30.048Z,73.10
2018-09-20T18:30:57.434Z,73.50
2018-09-20T18:33:24.874Z,74.50
2018-09-20T18:35:52.443Z,74.70
2018-09-20T18:38:19.874Z,74.40
2018-09-20T18:40:47.331Z,74.70
2018-09-20T18:43:14.662Z,74.70
2018-09-20T18:45:42.051Z,75.40
2018-09-20T18:48:09.499Z,75.50
2018-09-20T18:51:07.926Z,76.10
2018-09-20T18:53:35.302Z,76.80
2018-09-20T18:58:41.486Z,76.50
2018-09-20T19:01:09.430Z,76.90
2018-09-20T19:03:38.127Z,76.90
2018-09-20T19:06:05.708Z,77.20
2018-09-20T19:08:33.299Z,76.90
2018-09-20T19:11:01.005Z,76.60
2018-09-20T19:13:28.562Z,77.80
2018-09-20T19:15:56.036Z,77.90
2018-09-20T19:18:23.443Z,78.40
2018-09-20T19:20:50.851Z,79.00
2018-09-20T19:23:18.298Z,79.20
2018-09-20T19:25:46.686Z,79.70
2018-09-20T19:28:14.139Z,79.90
2018-09-20T19:30:41.711Z,80.10
2018-09-20T19:33:09.309Z,80.10
2018-09-20T19:35:36.933Z,80.50
2018-09-20T19:38:04.495Z,81.10
2018-09-20T19:40:33.616Z,81.30
2018-09-20T19:43:01.006Z,81.90
2018-09-20T19:45:28.524Z,82.20
2018-09-20T19:47:56.118Z,82.90
2018-09-20T19:50:23.473Z,83.50
2018-09-20T19:52:51.023Z,83.60
2018-09-20T19:55:18.487Z,84.30
2018-09-20T19:57:46.216Z,84.70
2018-09-20T20:00:14.234Z,85.20
2018-09-20T20:02:41.607Z,85.70
2018-09-20T20:05:09.173Z,86.20
2018-09-20T20:07:36.705Z,86.50
2018-09-20T20:10:04.363Z,86.90
2018-09-20T20:12:31.765Z,87.40
2018-09-20T20:14:59.128Z,87.30
2018-09-20T20:17:26.542Z,87.30
2018-09-20T20:19:53.983Z,87.80
2018-09-20T20:22:21.380Z,88.20
2018-09-20T20:24:49.759Z,88.40
2018-09-20T20:27:17.163Z,89.00
2018-09-20T20:29:44.736Z,89.50
2018-09-20T20:32:12.185Z,90.10
2018-09-20T20:34:39.672Z,90.20
2018-09-20T20:37:07.138Z,90.40
2018-09-20T20:39:34.704Z,90.90
2018-09-20T20:42:02.159Z,91.10
2018-09-20T20:44:29.626Z,91.30
2018-09-20T20:46:57.606Z,91.20
2018-09-20T20:49:25.123Z,91.30
2018-09-20T20:51:52.687Z,91.50
2018-09-20T20:54:20.073Z,91.80
2018-09-20T20:56:47.562Z,92.00
2018-09-20T20:59:14.984Z,91.90
2018-09-20T21:01:42.506Z,92.10
2018-09-20T21:04:09.850Z,92.40
2018-09-20T21:06:37.274Z,92.40
2018-09-20T21:09:05.848Z,92.80
2018-09-20T21:11:33.159Z,92.80
2018-09-20T21:14:00.704Z,93.10
2018-09-20T21:16:28.959Z,93.30
2018-09-20T21:18:56.330Z,93.30
2018-09-20T21:21:23.755Z,93.40
2018-09-20T21:23:51.230Z,94.00
2018-09-20T21:26:18.625Z,93.60
2018-09-20T21:28:46.062Z,94.00
2018-09-20T21:31:14.218Z,94.10
2018-09-20T21:33:41.711Z,94.60
2018-09-20T21:36:09.058Z,94.30
2018-09-20T21:38:36.455Z,94.70
2018-09-20T21:41:03.803Z,95.40
2018-09-20T21:43:31.830Z,95.30
2018-09-20T21:45:59.608Z,95.70
2018-09-20T21:48:27.645Z,96.50
2018-09-20T21:50:54.980Z,96.70
2018-09-20T21:53:22.336Z,96.90
2018-09-20T21:55:49.670Z,96.30
2018-09-20T21:58:17.031Z,97.00
2018-09-20T22:00:45.230Z,97.50
2018-09-20T22:03:12.675Z,97.20
2018-09-20T22:05:40.027Z,97.60
2018-09-20T22:08:07.377Z,97.60
2018-09-20T22:10:34.734Z,97.60
2018-09-20T22:13:02.098Z,97.50
2018-09-20T22:15:30.099Z,97.70
2018-09-20T22:17:57.952Z,97.80
2018-09-20T22:20:27.250Z,97.80
2018-09-20T22:22:54.607Z,98.00
2018-09-20T22:25:21.968Z,98.20
2018-09-20T22:27:49.314Z,98.40
2018-09-20T22:30:16.828Z,98.80
2018-09-20T22:32:44.602Z,99.10
2018-09-20T22:35:12.006Z,99.50
2018-09-20T22:37:39.346Z,99.90
2018-09-20T22:40:06.694Z,99.90
2018-09-20T22:42:34.048Z,99.90
2018-09-20T22:45:02.257Z,99.90
2018-09-20T22:47:29.630Z,99.90
2018-09-20T22:49:57.087Z,99.90
2018-09-20T22:52:24.438Z,99.90
2018-09-20T22:54:52.015Z,99.90
2018-09-20T22:57:19.667Z,99.90
2018-09-20T22:59:47.050Z,99.90
2018-09-20T23:02:14.803Z,99.90
2018-09-20T23:04:42.151Z,99.90
2018-09-20T23:07:09.698Z,99.90
2018-09-20T23:09:37.050Z,99.90
2018-09-20T23:12:04.501Z,99.90
2018-09-20T23:14:32.127Z,99.90
2018-09-20T23:16:59.546Z,99.90
2018-09-20T23:19:26.929Z,99.90
2018-09-20T23:21:54.621Z,99.90
2018-09-20T23:24:22.079Z,99.90
2018-09-20T23:26:49.414Z,99.90
2018-09-20T23:29:16.770Z,99.90
2018-09-20T23:31:44.398Z,99.90
2018-09-20T23:34:11.750Z,99.90
2018-09-20T23:36:39.104Z,99.90
2018-09-20T23:39:07.526Z,99.90
2018-09-20T23:41:34.866Z,99.90
2018-09-20T23:44:02.214Z,99.90
2018-09-20T23:46:29.606Z,99.90
2018-09-20T23:48:56.975Z,99.90
2018-09-20T23:51:24.354Z,99.90
2018-09-20T23:53:58.420Z,99.90
2018-09-20T23:56:25.795Z,99.90
2018-09-20T23:58:53.223Z,99.90
